Ocean Glory — KOGH — position and weather

sailwx.info

Track history (hours):
 
Tides and Currents Weather Stations Pressure Air Temp Water Temp Dewpoint Dewpoint Depression Visibility Wind Speed Wind Dir Waves Ship Positions

Ocean Glory

Owner: Crowley Global Ship Management, Jacksonville, FL. More information available from US FCC via Universal Licensing System and Coast Guard Vessel Documentation Center.

Last reported at 2017-Dec-14 06:47 UTC. Time now 2017-Dec-17 15:46 UTC.
Position N 25°20' E 122°51'.

Length 171 m; draft 7.3 m.

Type: Ship. MMSI: 367721220.

Date/timePositionNaut miles runAvg speedWind from/ knotsBaromVisibWave heightAir tempDewpointWater temp
2017-Dec-14 06:47N 25°20' E 122°51'415.2
2017-Dec-14 06:30N 25°16' E 122°51'815.7
2017-Dec-14 06:00N 25°08' E 122°50'815.2
2017-Dec-14 05:30N 25°01' E 122°48'714.9
2017-Dec-14 05:00N 24°53' E 122°47'815.6
2017-Dec-14 04:30N 24°46' E 122°46'815.8
2017-Dec-14 04:00N 24°38' E 122°45'816.1
2017-Dec-14 03:30N 24°30' E 122°44'816.3
2017-Dec-14 03:00N 24°22' E 122°43'815.7
2017-Dec-14 02:30N 24°14' E 122°42'815.4
2017-Dec-14 02:00N 24°06' E 122°40'815.3
2017-Dec-14 01:30N 23°59' E 122°39'715.0
2017-Dec-14 01:00N 23°51' E 122°38'714.8
2017-Dec-14 00:30N 23°44' E 122°36'714.7
2017-Dec-14 00:00N 23°37' E 122°35'  
2017-Dec-08 07:26N 01°19' E 104°06'1 2.7
2017-Dec-08 06:59N 01°19' E 104°04'0 0.3
2017-Dec-08 06:30N 01°19' E 104°04'13 8.5
2017-Dec-08 04:59N 01°26' E 103°53'  
Track history (hours):
 
Tides and Currents Weather Stations Pressure Air Temp Water Temp Dewpoint Dewpoint Depression Visibility Wind Speed Wind Dir Waves Ship Positions

Ocean Glory

Owner: Crowley Global Ship Management, Jacksonville, FL. More information available from US FCC via Universal Licensing System and Coast Guard Vessel Documentation Center.

Last reported at 2017-Dec-14 06:47 UTC. Time now 2017-Dec-17 15:46 UTC.
Position N 25°20' E 122°51'.

Length 171 m; draft 7.3 m.

Type: Ship. MMSI: 367721220.

Date/timePositionNaut miles runAvg speedWind from/ knotsBaromVisibWave heightAir tempDewpointWater temp
2017-Dec-14 06:47N 25°20' E 122°51'415.2
2017-Dec-14 06:30N 25°16' E 122°51'815.7
2017-Dec-14 06:00N 25°08' E 122°50'815.2
2017-Dec-14 05:30N 25°01' E 122°48'714.9
2017-Dec-14 05:00N 24°53' E 122°47'815.6
2017-Dec-14 04:30N 24°46' E 122°46'815.8
2017-Dec-14 04:00N 24°38' E 122°45'816.1
2017-Dec-14 03:30N 24°30' E 122°44'816.3
2017-Dec-14 03:00N 24°22' E 122°43'815.7
2017-Dec-14 02:30N 24°14' E 122°42'815.4
2017-Dec-14 02:00N 24°06' E 122°40'815.3
2017-Dec-14 01:30N 23°59' E 122°39'715.0
2017-Dec-14 01:00N 23°51' E 122°38'714.8
2017-Dec-14 00:30N 23°44' E 122°36'714.7
2017-Dec-14 00:00N 23°37' E 122°35'  
2017-Dec-08 07:26N 01°19' E 104°06'1 2.7
2017-Dec-08 06:59N 01°19' E 104°04'0 0.3
2017-Dec-08 06:30N 01°19' E 104°04'13 8.5
2017-Dec-08 04:59N 01°26' E 103°53'  

Dump ship's entire track history